createdAt,value
2023-04-07T00:00:57.520Z,90.13
2023-04-07T00:03:29.878Z,89.92
2023-04-07T00:06:01.438Z,89.84
2023-04-07T00:08:31.103Z,89.50
2023-04-07T00:10:59.640Z,89.76
2023-04-07T00:13:30.909Z,89.02
2023-04-07T00:16:02.662Z,89.32
2023-04-07T00:18:31.093Z,88.88
2023-04-07T00:20:59.466Z,88.18
2023-04-07T00:23:28.353Z,88.75
2023-04-07T00:25:56.898Z,88.75
2023-04-07T00:28:25.513Z,88.37
2023-04-07T00:30:55.581Z,87.31
2023-04-07T00:33:24.704Z,88.53
2023-04-07T00:35:58.651Z,87.61
2023-04-07T00:38:30.047Z,87.30
2023-04-07T00:41:02.062Z,87.59
2023-04-07T00:43:31.155Z,87.94
2023-04-07T00:46:06.244Z,88.34
2023-04-07T00:48:39.883Z,88.90
2023-04-07T00:51:09.682Z,88.86
2023-04-07T00:53:38.310Z,88.60
2023-04-07T00:56:07.724Z,88.69
2023-04-07T00:58:37.597Z,89.01
2023-04-07T01:01:12.128Z,89.51
2023-04-07T01:03:48.869Z,89.14
2023-04-07T01:06:21.693Z,88.89
2023-04-07T01:08:55.823Z,88.60
2023-04-07T01:11:35.488Z,89.43
2023-04-07T01:14:11.178Z,89.15
2023-04-07T01:16:48.184Z,89.11
2023-04-07T01:19:29.644Z,89.12
2023-04-07T01:22:08.327Z,88.92
2023-04-07T01:24:52.480Z,89.02
2023-04-07T01:27:28.220Z,88.90
2023-04-07T01:30:04.077Z,88.95
2023-04-07T01:32:34.177Z,89.10
2023-04-07T01:35:04.974Z,88.85
2023-04-07T01:37:37.422Z,89.29
2023-04-07T01:40:09.362Z,89.73
2023-04-07T01:42:42.515Z,87.93
2023-04-07T01:45:13.965Z,88.89
2023-04-07T01:47:43.183Z,88.60
2023-04-07T01:50:16.647Z,88.46
2023-04-07T01:52:49.867Z,89.30
2023-04-07T01:55:18.573Z,89.55
2023-04-07T01:57:46.837Z,88.70
2023-04-07T02:00:22.047Z,88.73
2023-04-07T02:02:57.899Z,88.77
2023-04-07T02:05:31.200Z,88.86
2023-04-07T02:08:09.330Z,88.88
2023-04-07T02:10:41.226Z,89.02
2023-04-07T02:13:11.855Z,89.22
2023-04-07T02:15:51.937Z,89.99
2023-04-07T02:18:22.192Z,90.82
2023-04-07T02:20:54.182Z,91.01
2023-04-07T02:23:25.359Z,90.77
2023-04-07T02:26:02.370Z,90.40
2023-04-07T02:28:31.344Z,88.74
2023-04-07T02:31:01.620Z,88.61
2023-04-07T02:33:31.621Z,88.60
2023-04-07T02:36:01.547Z,88.49
2023-04-07T02:38:30.272Z,88.31
2023-04-07T02:41:05.216Z,88.22
2023-04-07T02:43:34.135Z,87.59
2023-04-07T02:46:03.825Z,87.64
2023-04-07T02:48:32.121Z,87.11
2023-04-07T02:51:02.107Z,87.06
2023-04-07T02:53:30.655Z,87.47
2023-04-07T02:56:02.016Z,87.17
2023-04-07T02:58:32.874Z,87.27
2023-04-07T03:01:06.993Z,86.46
2023-04-07T03:03:35.754Z,86.44
2023-04-07T03:06:04.915Z,86.04
2023-04-07T03:08:40.120Z,86.28
2023-04-07T03:11:09.913Z,87.31
2023-04-07T03:13:39.522Z,86.12
2023-04-07T03:16:11.601Z,85.63
2023-04-07T03:18:41.716Z,85.40
2023-04-07T03:21:10.537Z,85.34
2023-04-07T03:23:40.951Z,85.44
2023-04-07T03:26:12.050Z,85.12
2023-04-07T03:28:43.769Z,85.58
2023-04-07T03:31:14.552Z,85.16
2023-04-07T03:33:43.091Z,85.27
2023-04-07T03:36:12.946Z,85.34
2023-04-07T03:38:42.174Z,85.13
2023-04-07T03:41:17.200Z,85.22
2023-04-07T03:43:45.806Z,85.94
2023-04-07T03:46:16.204Z,86.14
2023-04-07T03:48:44.770Z,85.20
2023-04-07T03:51:14.067Z,84.53
2023-04-07T03:53:43.005Z,83.94
2023-04-07T03:56:11.734Z,84.77
2023-04-07T03:58:42.723Z,84.45
2023-04-07T04:01:13.468Z,85.05
2023-04-07T04:03:43.850Z,86.15
2023-04-07T04:06:20.999Z,85.49
2023-04-07T04:08:49.788Z,85.93
2023-04-07T04:11:18.446Z,85.86
2023-04-07T04:13:51.957Z,85.76
2023-04-07T04:16:22.846Z,86.18
2023-04-07T04:18:54.154Z,85.72
2023-04-07T04:21:24.763Z,86.34
2023-04-07T04:23:53.467Z,85.14
2023-04-07T04:26:26.203Z,85.31
2023-04-07T04:28:54.622Z,85.18
2023-04-07T04:31:23.300Z,85.51
2023-04-07T04:33:56.225Z,84.71
2023-04-07T04:36:27.044Z,84.91
2023-04-07T04:38:55.449Z,84.80
2023-04-07T04:41:24.156Z,84.78
2023-04-07T04:43:58.876Z,85.09
2023-04-07T04:46:28.792Z,86.08
2023-04-07T04:48:58.619Z,85.72
2023-04-07T04:51:29.038Z,86.06
2023-04-07T04:53:57.523Z,86.22
2023-04-07T04:56:26.570Z,86.34
2023-04-07T04:58:55.151Z,86.55
2023-04-07T05:01:23.723Z,86.44
2023-04-07T05:03:53.476Z,86.94
2023-04-07T05:06:23.883Z,86.18
2023-04-07T05:08:52.582Z,86.01
2023-04-07T05:11:24.673Z,86.22
2023-04-07T05:13:53.656Z,86.10
2023-04-07T05:16:23.792Z,85.72
2023-04-07T05:18:52.626Z,86.04
2023-04-07T05:21:25.860Z,85.06
2023-04-07T05:23:54.460Z,84.74
2023-04-07T05:26:23.149Z,84.98
2023-04-07T05:28:55.226Z,84.75
2023-04-07T05:31:25.123Z,83.84
2023-04-07T05:33:56.177Z,83.71
2023-04-07T05:36:28.430Z,83.61
2023-04-07T05:39:00.229Z,83.90
2023-04-07T05:41:29.422Z,83.43
2023-04-07T05:43:58.072Z,83.02
2023-04-07T05:46:26.466Z,83.83
2023-04-07T05:48:57.971Z,83.50
2023-04-07T05:51:31.648Z,83.19
2023-04-07T05:54:04.737Z,83.38
2023-04-07T05:56:33.608Z,83.07
2023-04-07T05:59:02.343Z,82.65
2023-04-07T06:01:31.199Z,83.23
2023-04-07T06:04:03.736Z,85.86
2023-04-07T06:06:34.207Z,86.58
2023-04-07T06:09:07.754Z,87.02
2023-04-07T06:11:41.877Z,85.94
2023-04-07T06:14:10.637Z,85.51
2023-04-07T06:16:43.215Z,85.95
2023-04-07T06:19:11.847Z,86.79
2023-04-07T06:21:42.059Z,87.24
2023-04-07T06:24:11.186Z,87.19
2023-04-07T06:26:44.041Z,87.70
2023-04-07T06:29:13.676Z,87.06
2023-04-07T06:31:42.699Z,88.38
2023-04-07T06:34:13.276Z,88.02
2023-04-07T06:36:43.286Z,87.37
2023-04-07T06:39:11.783Z,87.30
2023-04-07T06:41:44.297Z,87.71
2023-04-07T06:44:14.016Z,87.80
2023-04-07T06:46:44.856Z,87.62
2023-04-07T06:49:14.354Z,87.31
2023-04-07T06:51:45.128Z,86.85
2023-04-07T06:54:15.145Z,86.11
2023-04-07T06:56:46.218Z,87.38
2023-04-07T06:59:16.262Z,86.52
2023-04-07T07:01:45.481Z,87.37
2023-04-07T07:04:14.212Z,86.68
2023-04-07T07:06:43.959Z,87.16
2023-04-07T07:09:13.330Z,86.62
2023-04-07T07:11:42.625Z,85.37
2023-04-07T07:14:11.306Z,86.05
2023-04-07T07:16:39.727Z,84.89
2023-04-07T07:19:09.841Z,85.78
2023-04-07T07:21:38.662Z,86.09
2023-04-07T07:24:10.376Z,85.34
2023-04-07T07:26:44.538Z,84.01
2023-04-07T07:29:16.131Z,84.55
2023-04-07T07:31:46.092Z,84.09
2023-04-07T07:34:14.580Z,83.77
2023-04-07T07:36:43.010Z,83.41
2023-04-07T07:39:14.722Z,83.56
2023-04-07T07:41:46.300Z,84.73
2023-04-07T07:44:15.742Z,83.42
2023-04-07T07:46:45.348Z,83.54
2023-04-07T07:49:14.448Z,83.90
2023-04-07T07:51:43.685Z,83.61
2023-04-07T07:54:14.772Z,84.26
2023-04-07T07:56:43.329Z,85.89
2023-04-07T07:59:12.989Z,84.75
2023-04-07T08:01:41.902Z,84.70
2023-04-07T08:04:12.123Z,84.48
2023-04-07T08:06:42.136Z,84.69
2023-04-07T08:09:10.515Z,83.95
2023-04-07T08:11:40.384Z,84.08
2023-04-07T08:14:09.952Z,83.62
2023-04-07T08:16:39.273Z,84.46
2023-04-07T08:19:07.691Z,84.18
2023-04-07T08:21:36.230Z,83.64
2023-04-07T08:24:04.976Z,84.47
2023-04-07T08:26:33.591Z,83.78
2023-04-07T08:29:04.253Z,84.75
2023-04-07T08:31:32.581Z,85.48
2023-04-07T08:34:00.984Z,84.58
2023-04-07T08:36:32.139Z,85.91
2023-04-07T08:39:07.807Z,86.18
2023-04-07T08:41:41.187Z,86.56
2023-04-07T08:44:14.321Z,86.53
2023-04-07T08:46:43.347Z,86.56
2023-04-07T08:49:15.343Z,86.41
2023-04-07T08:51:48.547Z,86.35
2023-04-07T08:54:22.801Z,84.99
2023-04-07T08:56:52.924Z,86.07
2023-04-07T08:59:26.927Z,85.92
2023-04-07T09:01:58.472Z,86.08
2023-04-07T09:04:28.673Z,85.28
2023-04-07T09:07:05.646Z,86.12
2023-04-07T09:09:34.558Z,86.42
2023-04-07T09:12:03.563Z,85.23
2023-04-07T09:14:33.513Z,85.34
2023-04-07T09:17:03.648Z,84.66
2023-04-07T09:19:35.670Z,85.09
2023-04-07T09:22:03.867Z,84.81
2023-04-07T09:24:33.002Z,84.60
2023-04-07T09:27:17.031Z,85.03
2023-04-07T09:29:48.731Z,86.21
2023-04-07T09:32:38.830Z,86.03
2023-04-07T09:35:08.988Z,86.10
2023-04-07T09:37:37.774Z,84.90
2023-04-07T09:40:08.920Z,86.05
2023-04-07T09:42:46.690Z,84.62
2023-04-07T09:45:33.962Z,85.17
2023-04-07T09:48:21.569Z,84.71
2023-04-07T09:50:54.908Z,84.21
2023-04-07T09:53:44.348Z,83.49
2023-04-07T09:56:13.232Z,82.32
2023-04-07T09:58:45.561Z,82.61
2023-04-07T10:01:17.383Z,83.47
2023-04-07T10:03:47.399Z,82.83
2023-04-07T10:06:16.766Z,81.87
2023-04-07T10:08:47.023Z,82.57
2023-04-07T10:11:18.104Z,83.27
2023-04-07T10:13:46.849Z,83.91
2023-04-07T10:16:21.157Z,83.71
2023-04-07T10:18:51.282Z,83.15
2023-04-07T10:21:19.961Z,82.19
2023-04-07T10:24:01.034Z,82.00
2023-04-07T10:26:40.082Z,80.23
2023-04-07T10:29:16.238Z,82.25
2023-04-07T10:31:52.392Z,82.33
2023-04-07T10:35:02.627Z,81.81
2023-04-07T10:37:33.507Z,79.28
2023-04-07T10:40:31.966Z,80.82
2023-04-07T10:43:02.492Z,80.09
2023-04-07T10:46:01.569Z,80.56
2023-04-07T10:48:34.025Z,80.53
2023-04-07T10:51:19.928Z,80.66
2023-04-07T10:54:23.296Z,80.99
2023-04-07T10:57:10.397Z,79.06
2023-04-07T10:59:41.291Z,78.79
2023-04-07T11:02:33.131Z,78.71
2023-04-07T11:05:04.404Z,78.32
2023-04-07T11:07:55.299Z,78.55
2023-04-07T11:10:24.189Z,79.50
2023-04-07T11:13:07.458Z,77.85
2023-04-07T11:15:40.022Z,79.27
2023-04-07T11:18:20.255Z,79.62
2023-04-07T11:20:53.826Z,79.06
2023-04-07T11:23:23.999Z,78.31
2023-04-07T11:25:54.566Z,77.98
2023-04-07T11:28:23.133Z,79.48
2023-04-07T11:30:54.454Z,78.50
2023-04-07T11:33:24.631Z,78.78
2023-04-07T11:35:58.877Z,78.33
2023-04-07T11:38:28.926Z,80.09
2023-04-07T11:40:58.133Z,79.55
2023-04-07T11:43:30.172Z,78.22
2023-04-07T11:46:09.791Z,77.63
2023-04-07T11:48:40.233Z,78.30
2023-04-07T11:51:19.581Z,76.17
2023-04-07T11:53:51.525Z,76.52
2023-04-07T11:56:22.597Z,76.91
2023-04-07T11:58:52.094Z,78.57
2023-04-07T12:01:21.807Z,77.59
2023-04-07T12:03:59.516Z,77.69
2023-04-07T12:06:31.171Z,77.88
2023-04-07T12:08:59.817Z,76.90
2023-04-07T12:11:30.098Z,76.14
2023-04-07T12:13:58.683Z,75.99
2023-04-07T12:16:26.982Z,76.58
2023-04-07T12:18:56.026Z,75.16
2023-04-07T12:21:26.022Z,76.38
2023-04-07T12:23:59.209Z,76.29
2023-04-07T12:26:32.998Z,76.14
2023-04-07T12:29:05.555Z,75.58
2023-04-07T12:31:36.494Z,76.68
2023-04-07T12:34:24.004Z,75.66
2023-04-07T12:37:24.389Z,74.96
2023-04-07T12:39:58.993Z,76.38
2023-04-07T12:42:36.072Z,75.16
2023-04-07T12:45:05.671Z,75.55
2023-04-07T12:47:41.658Z,75.82
2023-04-07T12:50:47.149Z,75.84
2023-04-07T12:53:17.429Z,76.40
2023-04-07T12:55:50.536Z,76.09
2023-04-07T12:58:19.940Z,77.21
2023-04-07T13:00:48.963Z,76.88
2023-04-07T13:03:17.890Z,77.26
2023-04-07T13:05:46.632Z,76.81
2023-04-07T13:08:15.230Z,76.16
2023-04-07T13:10:45.274Z,75.74
2023-04-07T13:13:17.798Z,76.01
2023-04-07T13:15:47.205Z,76.79
2023-04-07T13:18:17.313Z,75.81
2023-04-07T13:20:55.266Z,76.09
2023-04-07T13:23:43.230Z,76.03
2023-04-07T13:26:13.066Z,76.31
2023-04-07T13:28:46.297Z,76.77
2023-04-07T13:31:17.102Z,76.38
2023-04-07T13:33:47.768Z,76.09
2023-04-07T13:36:17.586Z,76.05
2023-04-07T13:38:47.624Z,76.66
2023-04-07T13:41:17.330Z,76.50
2023-04-07T13:43:48.319Z,76.61
2023-04-07T13:46:27.774Z,77.40
2023-04-07T13:49:00.658Z,78.27
2023-04-07T13:51:29.543Z,78.28
2023-04-07T13:54:03.048Z,78.27
2023-04-07T13:56:31.665Z,78.35
2023-04-07T13:59:02.699Z,78.90
2023-04-07T14:01:32.289Z,78.02
2023-04-07T14:04:02.593Z,78.01
2023-04-07T14:06:33.575Z,77.52
2023-04-07T14:09:06.426Z,78.61
2023-04-07T14:11:37.754Z,78.43
2023-04-07T14:14:09.178Z,81.06
2023-04-07T14:16:38.834Z,77.82
2023-04-07T14:19:07.409Z,77.32
2023-04-07T14:21:37.684Z,78.60
2023-04-07T14:24:06.377Z,77.96
2023-04-07T14:26:37.964Z,78.15
2023-04-07T14:29:12.104Z,78.05
2023-04-07T14:31:41.270Z,77.36
2023-04-07T14:34:09.981Z,77.77
2023-04-07T14:36:38.668Z,77.77
2023-04-07T14:39:07.399Z,77.66
2023-04-07T14:41:35.943Z,78.07
2023-04-07T14:44:07.299Z,78.07
2023-04-07T14:46:37.312Z,78.00
2023-04-07T14:49:06.473Z,78.42
2023-04-07T14:51:35.156Z,78.35
2023-04-07T14:54:03.447Z,77.67
2023-04-07T14:56:31.856Z,78.33
2023-04-07T14:59:03.496Z,77.88
2023-04-07T15:01:37.775Z,78.13
2023-04-07T15:04:11.265Z,78.29
2023-04-07T15:06:42.309Z,78.82
2023-04-07T15:09:11.764Z,78.86
2023-04-07T15:11:40.370Z,78.91
2023-04-07T15:14:08.847Z,78.49
2023-04-07T15:16:38.673Z,79.09
2023-04-07T15:19:07.289Z,79.51
2023-04-07T15:21:35.660Z,79.11
2023-04-07T15:24:05.892Z,79.67
2023-04-07T15:26:34.683Z,79.80
2023-04-07T15:29:03.798Z,80.36
2023-04-07T15:31:32.848Z,80.58
2023-04-07T15:34:04.329Z,80.58
2023-04-07T15:36:32.918Z,80.88
2023-04-07T15:39:04.489Z,81.06
2023-04-07T15:41:34.229Z,81.12
2023-04-07T15:44:04.025Z,80.95
2023-04-07T15:46:33.175Z,82.33
2023-04-07T15:49:03.610Z,82.42
2023-04-07T15:51:34.553Z,82.53
2023-04-07T15:54:04.111Z,82.15
2023-04-07T15:56:32.596Z,82.18
2023-04-07T15:59:02.985Z,82.34
2023-04-07T16:01:32.098Z,82.72
2023-04-07T16:04:02.446Z,82.50
2023-04-07T16:06:33.071Z,82.69
2023-04-07T16:09:01.719Z,83.33
2023-04-07T16:11:30.859Z,83.25
2023-04-07T16:13:59.540Z,83.78
2023-04-07T16:16:28.107Z,83.89
2023-04-07T16:19:49.164Z,83.86
2023-04-07T16:22:19.191Z,83.83
2023-04-07T16:24:56.511Z,83.89
2023-04-07T16:27:25.361Z,83.97
2023-04-07T16:29:57.274Z,83.97
2023-04-07T16:32:26.098Z,83.94
2023-04-07T16:34:54.641Z,84.08
2023-04-07T16:37:24.268Z,84.57
2023-04-07T16:39:56.188Z,84.42
2023-04-07T16:42:26.552Z,84.76
2023-04-07T16:44:55.513Z,84.70
2023-04-07T16:47:28.438Z,85.05
2023-04-07T16:50:04.134Z,84.94
2023-04-07T16:52:37.720Z,85.08
2023-04-07T16:55:07.528Z,85.04
2023-04-07T16:57:36.211Z,85.29
2023-04-07T17:00:07.144Z,85.54
2023-04-07T17:02:36.195Z,85.72
2023-04-07T17:05:04.529Z,85.79
2023-04-07T17:07:37.440Z,85.88
2023-04-07T17:10:08.962Z,85.63
2023-04-07T17:12:38.986Z,86.01
2023-04-07T17:15:11.040Z,86.34
2023-04-07T17:17:41.326Z,86.43
2023-04-07T17:20:13.968Z,86.45
2023-04-07T17:22:45.101Z,86.32
2023-04-07T17:25:13.569Z,86.28
2023-04-07T17:27:42.407Z,86.54
2023-04-07T17:30:11.835Z,86.46
2023-04-07T17:32:42.624Z,86.61
2023-04-07T17:35:11.507Z,86.62
2023-04-07T17:37:39.939Z,86.85
2023-04-07T17:40:11.340Z,86.99
2023-04-07T17:42:43.447Z,87.32
2023-04-07T17:45:12.218Z,87.45
2023-04-07T17:47:40.479Z,87.50
2023-04-07T17:50:12.698Z,87.63
2023-04-07T17:52:45.193Z,87.99
2023-04-07T17:55:18.168Z,87.66
2023-04-07T17:57:47.942Z,87.46
2023-04-07T18:00:18.341Z,87.87
2023-04-07T18:02:48.188Z,87.70
2023-04-07T18:05:17.354Z,87.84
2023-04-07T18:07:47.931Z,88.05
2023-04-07T18:10:19.913Z,88.31
2023-04-07T18:12:50.070Z,88.19
2023-04-07T18:15:18.863Z,88.11
2023-04-07T18:17:53.398Z,88.17
2023-04-07T18:20:24.511Z,88.30
2023-04-07T18:22:57.390Z,88.95
2023-04-07T18:25:27.834Z,89.78
2023-04-07T18:27:56.501Z,89.99
2023-04-07T18:30:26.567Z,90.40
2023-04-07T18:32:55.782Z,90.46
2023-04-07T18:35:27.465Z,91.36
2023-04-07T18:37:57.268Z,91.71
2023-04-07T18:40:32.836Z,92.01
2023-04-07T18:43:01.623Z,92.42
2023-04-07T18:45:31.663Z,92.78
2023-04-07T18:48:01.568Z,92.46
2023-04-07T18:50:30.988Z,92.76
2023-04-07T18:53:00.085Z,93.05
2023-04-07T18:55:30.747Z,93.69
2023-04-07T18:57:59.005Z,93.59
2023-04-07T19:00:28.701Z,93.91
2023-04-07T19:02:57.689Z,94.27
2023-04-07T19:05:26.453Z,94.50
2023-04-07T19:07:56.142Z,93.93
2023-04-07T19:10:26.301Z,93.79
2023-04-07T19:12:56.726Z,93.78
2023-04-07T19:15:24.982Z,93.74
2023-04-07T19:17:54.131Z,94.01
2023-04-07T19:20:22.406Z,94.17
2023-04-07T19:22:51.222Z,94.13
2023-04-07T19:25:19.583Z,93.89
2023-04-07T19:27:49.307Z,94.03
2023-04-07T19:30:21.736Z,94.04
2023-04-07T19:32:53.043Z,94.41
2023-04-07T19:35:22.086Z,94.59
2023-04-07T19:37:52.065Z,94.48
2023-04-07T19:40:20.688Z,94.71
2023-04-07T19:42:50.723Z,94.43
2023-04-07T19:45:21.016Z,94.47
2023-04-07T19:47:51.323Z,94.48
2023-04-07T19:50:22.605Z,94.30
2023-04-07T19:52:53.521Z,94.42
2023-04-07T19:55:24.100Z,94.52
2023-04-07T19:57:53.567Z,94.59
2023-04-07T20:00:24.182Z,94.46
2023-04-07T20:02:52.711Z,94.60
2023-04-07T20:05:21.430Z,94.83
2023-04-07T20:07:50.430Z,94.36
2023-04-07T20:10:20.460Z,94.45
2023-04-07T20:12:49.697Z,93.64
2023-04-07T20:15:20.002Z,93.50
2023-04-07T20:17:51.479Z,93.85
2023-04-07T20:20:24.312Z,93.40
2023-04-07T20:22:53.802Z,93.27
2023-04-07T20:25:23.895Z,93.23
2023-04-07T20:27:52.521Z,93.65
2023-04-07T20:30:22.615Z,93.13
2023-04-07T20:32:53.203Z,93.28
2023-04-07T20:35:22.384Z,93.59
2023-04-07T20:37:50.838Z,93.49
2023-04-07T20:40:20.921Z,93.31
2023-04-07T20:42:56.033Z,93.85
2023-04-07T20:45:24.616Z,93.98
2023-04-07T20:47:56.946Z,94.10
2023-04-07T20:50:28.764Z,94.02
2023-04-07T20:53:02.870Z,93.94
2023-04-07T20:55:39.211Z,93.91
2023-04-07T20:58:07.681Z,94.21
2023-04-07T21:00:38.195Z,93.54
2023-04-07T21:03:11.973Z,94.10
2023-04-07T21:05:48.980Z,93.83
2023-04-07T21:08:23.254Z,94.08
2023-04-07T21:10:53.775Z,93.34
2023-04-07T21:13:26.352Z,93.46
2023-04-07T21:16:03.227Z,93.37
2023-04-07T21:18:36.766Z,93.26
2023-04-07T21:21:08.402Z,93.26
2023-04-07T21:23:37.326Z,93.32
2023-04-07T21:26:06.361Z,93.52
2023-04-07T21:28:37.568Z,93.69
2023-04-07T21:31:08.071Z,93.73
2023-04-07T21:33:40.433Z,93.40
2023-04-07T21:36:11.620Z,93.19
2023-04-07T21:39:04.952Z,93.02
2023-04-07T21:41:35.731Z,92.69
2023-04-07T21:44:06.269Z,92.62
2023-04-07T21:46:38.029Z,92.52
2023-04-07T21:49:08.494Z,92.91
2023-04-07T21:51:40.197Z,93.22
2023-04-07T21:54:09.628Z,93.15
2023-04-07T21:56:38.514Z,93.12
2023-04-07T21:59:07.688Z,93.41
2023-04-07T22:01:43.348Z,93.51
2023-04-07T22:04:16.793Z,93.93
2023-04-07T22:06:46.887Z,94.00
2023-04-07T22:09:16.493Z,94.31
2023-04-07T22:11:46.709Z,93.98
2023-04-07T22:14:16.160Z,94.35
2023-04-07T22:16:44.633Z,94.56
2023-04-07T22:19:17.182Z,94.78
2023-04-07T22:21:49.504Z,94.83
2023-04-07T22:24:20.847Z,94.73
2023-04-07T22:26:50.218Z,95.38
2023-04-07T22:29:18.892Z,95.33
2023-04-07T22:31:47.928Z,95.37
2023-04-07T22:34:19.435Z,95.18
2023-04-07T22:36:50.093Z,94.94
2023-04-07T22:39:18.302Z,94.95
2023-04-07T22:41:49.060Z,94.77
2023-04-07T22:44:18.282Z,94.72
2023-04-07T22:46:47.937Z,94.81
2023-04-07T22:49:22.604Z,94.83
2023-04-07T22:51:52.631Z,94.90
2023-04-07T22:54:22.451Z,94.97
2023-04-07T22:56:56.887Z,95.41
2023-04-07T22:59:27.002Z,95.58
2023-04-07T23:01:57.661Z,95.93
2023-04-07T23:04:30.478Z,96.03
2023-04-07T23:06:59.820Z,96.16
2023-04-07T23:09:28.850Z,96.27
2023-04-07T23:11:59.062Z,96.76
2023-04-07T23:14:27.974Z,96.88
2023-04-07T23:16:57.602Z,97.07
2023-04-07T23:19:43.241Z,97.30
2023-04-07T23:22:13.914Z,97.30
2023-04-07T23:30:18.292Z,98.00
2023-04-07T23:42:17.860Z,97.92
2023-04-07T23:43:59.460Z,97.85
2023-04-07T23:44:48.325Z,97.92
2023-04-07T23:47:16.724Z,97.34
2023-04-07T23:49:45.179Z,97.30
2023-04-07T23:52:15.187Z,97.71
2023-04-07T23:54:44.907Z,97.97
2023-04-07T23:57:13.603Z,98.07
2023-04-07T23:59:43.601Z,97.97
